Time;durP1;ratioP1;P1;durP2;ratioP2;P2;SDS_P1;SDS_P2;PMS_P1;PMS_P2;Temp;Humidity;BMP_temperature;BMP_pressure;BME280_temperature;BME280_humidity;BME280_pressure;Samples;Min_cycle;Max_cycle;Signal;HPM_P1;HPM_P2
2022/08/10 00:00:28;;;;;;;2.75;1.20;;;;;;;;;;5055537;28;20384;-79
2022/08/10 00:02:56;;;;;;;1.63;1.25;;;;;;;;;;5037061;28;20823;-78
2022/08/10 00:05:22;;;;;;;1.30;1.10;;;;;;;;;;5055210;28;20389;-78
2022/08/10 00:07:49;;;;;;;2.15;1.30;;;;;;;;;;5055277;28;20865;-78
2022/08/10 00:10:17;;;;;;;1.58;1.08;;;;;;;;;;5055308;28;20378;-78
2022/08/10 00:12:43;;;;;;;2.33;1.35;;;;;;;;;;5055333;28;20377;-78
2022/08/10 00:15:10;;;;;;;1.63;1.17;;;;;;;;;;5055384;28;20886;-78
2022/08/10 00:17:36;;;;;;;1.40;1.00;;;;;;;;;;5055144;28;20377;-79
2022/08/10 00:20:02;;;;;;;1.30;1.10;;;;;;;;;;5055221;28;20427;-78
2022/08/10 00:22:29;;;;;;;2.20;1.40;;;;;;;;;;5055101;28;20846;-78
2022/08/10 00:24:56;;;;;;;2.33;1.30;;;;;;;;;;5055124;28;20473;-78
2022/08/10 00:27:25;;;;;;;2.22;1.10;;;;;;;;;;5054660;28;20882;-79
2022/08/10 00:29:52;;;;;;;2.00;1.30;;;;;;;;;;5055026;28;20877;-78
2022/08/10 00:32:18;;;;;;;1.90;1.23;;;;;;;;;;5054938;28;20467;-79
2022/08/10 00:34:44;;;;;;;1.80;1.23;;;;;;;;;;5054924;28;20412;-78
2022/08/10 00:37:11;;;;;;;2.80;1.42;;;;;;;;;;5054718;28;20854;-79
2022/08/10 00:39:37;;;;;;;1.95;1.20;;;;;;;;;;5054857;28;20378;-79
2022/08/10 00:42:09;;;;;;;2.25;1.08;;;;;;;;;;5054671;28;20385;-79
2022/08/10 00:44:37;;;;;;;3.10;1.50;;;;;;;;;;5054384;28;20384;-78
2022/08/10 00:47:03;;;;;;;2.35;1.23;;;;;;;;;;5054721;28;20374;-78
2022/08/10 00:49:29;;;;;;;1.40;1.30;;;;;;;;;;5054518;28;20373;-78
2022/08/10 00:51:55;;;;;;;1.90;1.10;;;;;;;;;;5054579;28;20464;-79
2022/08/10 00:54:21;;;;;;;1.50;1.17;;;;;;;;;;5054468;28;20730;-78
2022/08/10 00:56:47;;;;;;;1.33;1.23;;;;;;;;;;5054413;28;20871;-78
2022/08/10 00:59:13;;;;;;;1.70;1.10;;;;;;;;;;5053798;28;20378;-78
2022/08/10 01:01:40;;;;;;;1.77;1.42;;;;;;;;;;5054670;28;20381;-78
2022/08/10 01:04:06;;;;;;;2.17;1.33;;;;;;;;;;5054258;28;20405;-79
2022/08/10 01:06:35;;;;;;;3.17;1.40;;;;;;;;;;5036782;28;20890;-79
2022/08/10 01:09:13;;;;;;;3.80;1.40;;;;;;;;;;5054354;28;20457;-78
2022/08/10 01:11:46;;;;;;;2.10;1.35;;;;;;;;;;5054087;28;20413;-78
2022/08/10 01:14:15;;;;;;;2.80;1.58;;;;;;;;;;5054129;28;20409;-78
2022/08/10 01:16:48;;;;;;;1.25;1.15;;;;;;;;;;5053837;28;20887;-78
2022/08/10 01:19:33;;;;;;;1.90;1.40;;;;;;;;;;5053987;28;20404;-79
2022/08/10 01:22:13;;;;;;;1.70;1.30;;;;;;;;;;5053883;28;20950;-78
2022/08/10 01:25:06;;;;;;;1.80;1.33;;;;;;;;;;5053989;28;20438;-78
2022/08/10 01:27:54;;;;;;;1.70;1.33;;;;;;;;;;5053817;28;20417;-78
2022/08/10 01:30:22;;;;;;;2.42;1.40;;;;;;;;;;5054086;28;20432;-78
2022/08/10 01:32:48;;;;;;;2.15;1.38;;;;;;;;;;5053436;28;20377;-78
2022/08/10 01:35:14;;;;;;;2.88;1.35;;;;;;;;;;5053130;28;20428;-79
2022/08/10 01:37:46;;;;;;;2.13;1.27;;;;;;;;;;5053619;28;20858;-79
2022/08/10 01:40:14;;;;;;;1.95;1.40;;;;;;;;;;5053745;28;20382;-78
2022/08/10 01:42:43;;;;;;;2.35;1.38;;;;;;;;;;5053381;28;20461;-78
2022/08/10 01:45:09;;;;;;;1.98;1.33;;;;;;;;;;5053637;28;20381;-78
2022/08/10 01:50:23;;;;;;;1.35;1.25;;;;;;;;;;5053998;28;20431;-78
2022/08/10 01:52:51;;;;;;;1.65;1.30;;;;;;;;;;5053427;28;20434;-78
2022/08/10 01:55:17;;;;;;;1.77;1.27;;;;;;;;;;5053360;28;20416;-78
2022/08/10 01:57:43;;;;;;;1.50;1.40;;;;;;;;;;5053319;28;20389;-78
2022/08/10 02:00:10;;;;;;;2.60;1.47;;;;;;;;;;5052819;28;20467;-78
2022/08/10 02:02:37;;;;;;;2.00;1.33;;;;;;;;;;5053000;28;20465;-78
2022/08/10 02:05:05;;;;;;;2.70;1.40;;;;;;;;;;5053077;28;20428;-79
2022/08/10 02:07:32;;;;;;;1.58;1.48;;;;;;;;;;5053086;28;20381;-78
2022/08/10 02:10:01;;;;;;;3.03;1.60;;;;;;;;;;5052129;28;20389;-78
2022/08/10 02:12:28;;;;;;;1.60;1.50;;;;;;;;;;5052979;28;20483;-78
2022/08/10 02:14:57;;;;;;;1.83;1.50;;;;;;;;;;5052901;28;20400;-78
2022/08/10 02:17:26;;;;;;;2.45;1.50;;;;;;;;;;5052871;28;20416;-78
2022/08/10 02:19:54;;;;;;;1.75;1.17;;;;;;;;;;5052869;28;20405;-78
2022/08/10 02:22:20;;;;;;;1.30;1.20;;;;;;;;;;5052845;28;20378;-78
2022/08/10 02:24:47;;;;;;;2.40;1.40;;;;;;;;;;5052894;28;20443;-78
2022/08/10 02:27:13;;;;;;;3.47;1.60;;;;;;;;;;5052656;28;20459;-78
2022/08/10 02:29:40;;;;;;;2.40;1.60;;;;;;;;;;5050439;28;20405;-78
2022/08/10 02:32:07;;;;;;;1.42;1.30;;;;;;;;;;5044397;28;20397;-78
2022/08/10 02:34:33;;;;;;;2.10;1.45;;;;;;;;;;5048880;28;20401;-78
2022/08/10 02:37:01;;;;;;;2.10;1.40;;;;;;;;;;5051525;28;20378;-78
2022/08/10 02:39:27;;;;;;;1.80;1.40;;;;;;;;;;5051331;28;20377;-78
2022/08/10 02:41:54;;;;;;;2.30;1.40;;;;;;;;;;5050994;28;20381;-78
2022/08/10 02:44:23;;;;;;;1.63;1.30;;;;;;;;;;5052443;28;20403;-78
2022/08/10 02:46:51;;;;;;;1.60;1.30;;;;;;;;;;5052642;28;20475;-78
2022/08/10 02:49:19;;;;;;;2.95;1.55;;;;;;;;;;5051445;28;20472;-78
2022/08/10 02:51:48;;;;;;;3.03;1.50;;;;;;;;;;5052321;28;20469;-78
2022/08/10 02:54:18;;;;;;;1.70;1.60;;;;;;;;;;5052400;28;20465;-78
2022/08/10 02:57:00;;;;;;;1.40;1.30;;;;;;;;;;5052085;28;20531;-78
2022/08/10 02:59:31;;;;;;;1.40;1.30;;;;;;;;;;5052270;28;20384;-78
2022/08/10 03:01:59;;;;;;;2.10;1.40;;;;;;;;;;5052276;28;20377;-78
2022/08/10 03:04:45;;;;;;;1.55;1.33;;;;;;;;;;5052368;28;20382;-78
2022/08/10 03:07:12;;;;;;;1.95;1.40;;;;;;;;;;5052005;28;20468;-78
2022/08/10 03:09:39;;;;;;;1.55;1.40;;;;;;;;;;5052181;28;20373;-78
2022/08/10 03:12:07;;;;;;;1.60;1.40;;;;;;;;;;5052126;28;20405;-78
2022/08/10 03:14:35;;;;;;;3.00;1.40;;;;;;;;;;5052024;28;20405;-77
2022/08/10 03:17:02;;;;;;;1.90;1.55;;;;;;;;;;5051912;28;20460;-78
2022/08/10 03:19:29;;;;;;;2.30;1.60;;;;;;;;;;5051905;28;20385;-78
2022/08/10 03:21:56;;;;;;;1.52;1.30;;;;;;;;;;5053630;28;20464;-78
2022/08/10 03:24:24;;;;;;;1.90;1.60;;;;;;;;;;5056231;28;20773;-78
2022/08/10 03:26:51;;;;;;;3.53;1.80;;;;;;;;;;5055875;28;20397;-78
2022/08/10 03:29:18;;;;;;;1.50;1.40;;;;;;;;;;5056048;28;20814;-78
2022/08/10 03:31:45;;;;;;;1.80;1.52;;;;;;;;;;5056109;28;20885;-78
2022/08/10 03:34:11;;;;;;;1.90;1.70;;;;;;;;;;5055962;28;20866;-78
2022/08/10 03:36:37;;;;;;;1.45;1.35;;;;;;;;;;5055937;28;20409;-78
2022/08/10 03:39:03;;;;;;;2.30;1.53;;;;;;;;;;5055479;28;20938;-78
2022/08/10 03:41:32;;;;;;;1.55;1.45;;;;;;;;;;5055799;28;20388;-78
2022/08/10 03:44:00;;;;;;;1.77;1.67;;;;;;;;;;5055438;28;20468;-78
2022/08/10 03:46:27;;;;;;;3.17;1.90;;;;;;;;;;5055695;28;20381;-78
2022/08/10 03:48:55;;;;;;;2.08;1.75;;;;;;;;;;5055959;28;20396;-78
2022/08/10 03:51:22;;;;;;;2.30;1.70;;;;;;;;;;5055644;28;20862;-78
2022/08/10 03:53:49;;;;;;;2.92;1.80;;;;;;;;;;5055282;28;20385;-78
2022/08/10 03:56:15;;;;;;;3.58;1.70;;;;;;;;;;5041760;28;20798;-78
2022/08/10 03:58:41;;;;;;;2.55;1.55;;;;;;;;;;5055705;28;20440;-78
2022/08/10 04:01:08;;;;;;;2.33;1.80;;;;;;;;;;5055720;28;20378;-78
2022/08/10 04:03:34;;;;;;;2.08;1.83;;;;;;;;;;5055485;28;20388;-78
2022/08/10 04:06:00;;;;;;;3.65;1.80;;;;;;;;;;5037413;28;20941;-78
2022/08/10 04:08:27;;;;;;;3.17;1.50;;;;;;;;;;5055574;28;20416;-78
2022/08/10 04:10:53;;;;;;;1.90;1.70;;;;;;;;;;5055464;28;20385;-78
2022/08/10 04:13:19;;;;;;;1.52;1.42;;;;;;;;;;5055375;28;20400;-78
2022/08/10 04:15:45;;;;;;;2.08;1.75;;;;;;;;;;5054700;28;20409;-78
2022/08/10 04:18:11;;;;;;;3.40;1.73;;;;;;;;;;5054998;28;20396;-78
2022/08/10 04:20:52;;;;;;;2.33;1.50;;;;;;;;;;5055200;28;20408;-78
2022/08/10 04:23:28;;;;;;;1.67;1.57;;;;;;;;;;5055636;28;20377;-80
2022/08/10 04:25:55;;;;;;;3.65;2.03;;;;;;;;;;5056645;28;20385;-78
2022/08/10 04:28:21;;;;;;;2.27;1.60;;;;;;;;;;5053924;28;20413;-79
2022/08/10 04:30:47;;;;;;;3.33;1.80;;;;;;;;;;5044796;28;20399;-79
2022/08/10 04:33:14;;;;;;;2.60;1.77;;;;;;;;;;5045728;28;20397;-77
2022/08/10 04:35:41;;;;;;;1.73;1.63;;;;;;;;;;5040956;28;20452;-77
2022/08/10 04:38:08;;;;;;;3.15;1.77;;;;;;;;;;5054080;28;20393;-79
2022/08/10 04:40:34;;;;;;;4.60;2.00;;;;;;;;;;5054469;28;20457;-79
2022/08/10 04:43:01;;;;;;;2.20;1.70;;;;;;;;;;5054216;28;20381;-79
2022/08/10 04:45:27;;;;;;;2.03;1.58;;;;;;;;;;5036515;28;20856;-79
2022/08/10 04:47:53;;;;;;;1.83;1.70;;;;;;;;;;5054547;28;20397;-80
2022/08/10 04:50:19;;;;;;;2.58;1.58;;;;;;;;;;5054590;28;20412;-79
2022/08/10 04:52:45;;;;;;;1.98;1.65;;;;;;;;;;5054736;28;20385;-79
2022/08/10 04:55:11;;;;;;;3.72;1.80;;;;;;;;;;5054460;28;20401;-79
2022/08/10 04:57:37;;;;;;;1.88;1.75;;;;;;;;;;5050724;28;20385;-79
2022/08/10 05:00:04;;;;;;;1.80;1.70;;;;;;;;;;5054077;28;20456;-79
2022/08/10 05:02:31;;;;;;;1.95;1.67;;;;;;;;;;5054416;28;20377;-79
2022/08/10 05:04:57;;;;;;;4.00;1.80;;;;;;;;;;5054335;28;20385;-79
2022/08/10 05:07:23;;;;;;;2.75;1.65;;;;;;;;;;5053771;28;20477;-79
2022/08/10 05:09:50;;;;;;;1.67;1.58;;;;;;;;;;5050642;28;20468;-79
2022/08/10 05:12:16;;;;;;;2.80;1.80;;;;;;;;;;5046202;28;20872;-79
2022/08/10 05:14:42;;;;;;;1.70;1.55;;;;;;;;;;5047632;28;20463;-79
2022/08/10 05:17:08;;;;;;;3.30;1.80;;;;;;;;;;5034967;28;20901;-78
2022/08/10 05:19:34;;;;;;;2.05;1.67;;;;;;;;;;5054118;28;20785;-79
2022/08/10 05:22:01;;;;;;;2.13;1.50;;;;;;;;;;5053604;28;20378;-81
2022/08/10 05:24:27;;;;;;;3.10;1.88;;;;;;;;;;5053994;28;20386;-80
2022/08/10 05:26:53;;;;;;;1.70;1.60;;;;;;;;;;5053733;28;20755;-79
2022/08/10 05:29:19;;;;;;;2.67;1.58;;;;;;;;;;5053927;28;20898;-80
2022/08/10 05:31:45;;;;;;;2.60;1.50;;;;;;;;;;5053947;28;20870;-81
2022/08/10 05:34:11;;;;;;;3.17;1.50;;;;;;;;;;5052744;28;20444;-80
2022/08/10 05:36:37;;;;;;;3.30;1.70;;;;;;;;;;5047156;28;20922;-80
2022/08/10 05:39:03;;;;;;;2.03;1.67;;;;;;;;;;5051777;28;20866;-80
2022/08/10 05:41:30;;;;;;;3.45;2.00;;;;;;;;;;5052276;28;20386;-80
2022/08/10 05:43:56;;;;;;;2.53;1.80;;;;;;;;;;5053414;28;20377;-78
2022/08/10 05:46:22;;;;;;;2.47;1.60;;;;;;;;;;5053030;28;20455;-79
2022/08/10 05:48:48;;;;;;;2.20;2.00;;;;;;;;;;5036191;28;20421;-79
2022/08/10 05:51:14;;;;;;;2.90;1.98;;;;;;;;;;5054220;28;20385;-78
2022/08/10 05:53:41;;;;;;;2.58;1.80;;;;;;;;;;5054656;28;20385;-79
2022/08/10 05:56:08;;;;;;;1.65;1.55;;;;;;;;;;5053150;28;20459;-79
2022/08/10 05:58:37;;;;;;;2.80;1.75;;;;;;;;;;5053456;28;20373;-79
2022/08/10 06:01:05;;;;;;;3.33;1.80;;;;;;;;;;5052037;28;20464;-78
2022/08/10 06:03:37;;;;;;;3.38;1.83;;;;;;;;;;5052718;28;20384;-78
2022/08/10 06:06:07;;;;;;;3.50;1.80;;;;;;;;;;5052680;28;20377;-78
2022/08/10 06:08:35;;;;;;;2.60;1.77;;;;;;;;;;5053252;28;20380;-79
2022/08/10 06:11:02;;;;;;;1.73;1.63;;;;;;;;;;5052428;28;20377;-79
2022/08/10 06:16:15;;;;;;;2.55;1.90;;;;;;;;;;5051680;28;20465;-79
2022/08/10 06:18:42;;;;;;;1.92;1.70;;;;;;;;;;5052837;28;20381;-79
2022/08/10 06:21:08;;;;;;;2.05;1.85;;;;;;;;;;5052856;28;20373;-79
2022/08/10 06:23:35;;;;;;;2.40;1.88;;;;;;;;;;5048637;28;20397;-79
2022/08/10 06:26:01;;;;;;;1.75;1.63;;;;;;;;;;5048622;28;20386;-79
2022/08/10 06:28:29;;;;;;;2.43;1.80;;;;;;;;;;5052444;28;20402;-78
2022/08/10 06:30:56;;;;;;;2.58;1.80;;;;;;;;;;5035108;28;20805;-78
2022/08/10 06:33:22;;;;;;;2.73;1.83;;;;;;;;;;5052337;28;20542;-78
2022/08/10 06:35:51;;;;;;;2.22;1.67;;;;;;;;;;5052427;28;20559;-78
2022/08/10 06:38:18;;;;;;;2.10;1.42;;;;;;;;;;5052744;28;20408;-79
2022/08/10 06:40:46;;;;;;;2.08;1.40;;;;;;;;;;5049332;28;20396;-78
2022/08/10 06:43:13;;;;;;;2.90;1.70;;;;;;;;;;5050978;28;20948;-78
2022/08/10 06:45:48;;;;;;;1.80;1.48;;;;;;;;;;5051075;28;20458;-78
2022/08/10 06:48:27;;;;;;;1.88;1.65;;;;;;;;;;5050362;28;20385;-78
2022/08/10 06:50:55;;;;;;;1.83;1.48;;;;;;;;;;5050041;28;20396;-78
2022/08/10 06:53:22;;;;;;;2.58;1.60;;;;;;;;;;5050751;28;20396;-78
2022/08/10 06:55:51;;;;;;;2.45;1.70;;;;;;;;;;5051710;28;20409;-78
2022/08/10 06:58:20;;;;;;;2.80;1.60;;;;;;;;;;5052057;28;20378;-78
2022/08/10 07:00:46;;;;;;;3.42;1.63;;;;;;;;;;5050248;28;20391;-79
2022/08/10 07:03:13;;;;;;;3.33;1.80;;;;;;;;;;5038094;28;20385;-79
2022/08/10 07:05:42;;;;;;;1.98;1.77;;;;;;;;;;5052181;28;20443;-79
2022/08/10 07:08:09;;;;;;;2.20;1.67;;;;;;;;;;5052047;28;20439;-79
2022/08/10 07:10:36;;;;;;;1.93;1.57;;;;;;;;;;5052189;28;20475;-79
2022/08/10 07:13:02;;;;;;;2.28;1.52;;;;;;;;;;5052133;28;20489;-78
2022/08/10 07:15:29;;;;;;;2.38;1.42;;;;;;;;;;5051933;28;20413;-79
2022/08/10 07:17:56;;;;;;;2.90;1.50;;;;;;;;;;5051879;28;20863;-78
2022/08/10 07:20:23;;;;;;;1.97;1.60;;;;;;;;;;5051700;28;20460;-78
2022/08/10 07:22:51;;;;;;;1.67;1.50;;;;;;;;;;5042329;28;20917;-78
2022/08/10 07:25:23;;;;;;;1.77;1.42;;;;;;;;;;5047933;28;20480;-79
2022/08/10 07:27:49;;;;;;;3.58;1.40;;;;;;;;;;5046284;28;20476;-79
2022/08/10 07:30:15;;;;;;;2.83;1.60;;;;;;;;;;5051841;28;20381;-79
2022/08/10 07:32:45;;;;;;;3.17;1.55;;;;;;;;;;5050971;28;20759;-78
2022/08/10 07:35:13;;;;;;;3.72;1.30;;;;;;;;;;5031717;28;21127;-78
2022/08/10 07:37:40;;;;;;;3.27;1.43;;;;;;;;;;5044257;28;20386;-79
2022/08/10 07:40:06;;;;;;;2.40;1.40;;;;;;;;;;5046158;28;20424;-78
2022/08/10 07:42:33;;;;;;;1.77;1.20;;;;;;;;;;5049153;28;20468;-79
2022/08/10 07:44:59;;;;;;;2.97;1.55;;;;;;;;;;5049119;28;20377;-78
2022/08/10 07:47:36;;;;;;;1.63;1.30;;;;;;;;;;5047835;28;20381;-79
2022/08/10 07:50:05;;;;;;;3.88;1.50;;;;;;;;;;5048615;28;20373;-78
2022/08/10 07:52:32;;;;;;;1.40;1.30;;;;;;;;;;5051996;28;20382;-79
2022/08/10 07:54:59;;;;;;;1.95;1.20;;;;;;;;;;5051631;28;20420;-79
2022/08/10 07:57:28;;;;;;;1.92;1.50;;;;;;;;;;5051620;28;20846;-79
2022/08/10 08:00:01;;;;;;;2.53;1.55;;;;;;;;;;5050138;28;20870;-79
2022/08/10 08:02:29;;;;;;;3.17;1.30;;;;;;;;;;5042256;28;20737;-79
2022/08/10 08:04:58;;;;;;;4.47;1.30;;;;;;;;;;5051519;28;20369;-79
2022/08/10 08:07:25;;;;;;;3.45;1.38;;;;;;;;;;5050645;28;20377;-79
2022/08/10 08:09:51;;;;;;;2.17;1.08;;;;;;;;;;5053593;28;20894;-78
2022/08/10 08:12:18;;;;;;;3.88;1.33;;;;;;;;;;5054496;28;20905;-79
2022/08/10 08:14:44;;;;;;;2.07;1.20;;;;;;;;;;5051793;28;20373;-83
2022/08/10 08:17:12;;;;;;;3.22;1.40;;;;;;;;;;5053979;28;20465;-82
2022/08/10 08:19:39;;;;;;;2.13;1.30;;;;;;;;;;5055277;28;20858;-82
2022/08/10 08:22:06;;;;;;;1.40;1.05;;;;;;;;;;5037484;28;20443;-82
2022/08/10 08:24:34;;;;;;;1.88;1.20;;;;;;;;;;5054953;28;20374;-82
2022/08/10 08:27:04;;;;;;;1.70;1.50;;;;;;;;;;5054133;28;20397;-81
2022/08/10 08:29:34;;;;;;;2.40;1.17;;;;;;;;;;5054988;28;20727;-82
2022/08/10 08:32:01;;;;;;;2.40;1.20;;;;;;;;;;5055145;28;20854;-82
2022/08/10 08:34:28;;;;;;;1.75;1.10;;;;;;;;;;5037453;28;20388;-82
2022/08/10 08:36:54;;;;;;;2.28;1.10;;;;;;;;;;5054779;28;20409;-82
2022/08/10 08:39:20;;;;;;;2.83;1.38;;;;;;;;;;5037306;28;20399;-82
2022/08/10 08:41:46;;;;;;;2.75;1.30;;;;;;;;;;5054828;28;20867;-82
2022/08/10 08:44:32;;;;;;;2.45;1.30;;;;;;;;;;5054815;28;20380;-83
2022/08/10 08:47:17;;;;;;;1.40;1.30;;;;;;;;;;5054654;28;20385;-82
2022/08/10 08:49:49;;;;;;;1.45;1.20;;;;;;;;;;5054557;28;20408;-82
2022/08/10 08:52:30;;;;;;;1.67;1.40;;;;;;;;;;5054709;28;20377;-82
2022/08/10 08:55:18;;;;;;;3.20;1.30;;;;;;;;;;5036672;28;20374;-83
2022/08/10 08:58:01;;;;;;;1.90;1.10;;;;;;;;;;5054569;28;20742;-82
2022/08/10 09:00:30;;;;;;;1.42;1.05;;;;;;;;;;5054744;28;20388;-84
2022/08/10 09:03:15;;;;;;;3.70;1.25;;;;;;;;;;5054457;28;20440;-82
2022/08/10 09:05:50;;;;;;;2.30;1.20;;;;;;;;;;5054377;28;20389;-81
2022/08/10 09:08:46;;;;;;;3.47;1.20;;;;;;;;;;5054329;28;20377;-83
2022/08/10 09:11:12;;;;;;;3.00;1.40;;;;;;;;;;5000585;28;20391;-82
2022/08/10 09:13:43;;;;;;;1.87;1.10;;;;;;;;;;5054607;28;20884;-83
2022/08/10 09:16:15;;;;;;;1.70;1.05;;;;;;;;;;5054128;28;20413;-82
2022/08/10 09:18:50;;;;;;;2.58;1.15;;;;;;;;;;5053892;28;20389;-82
2022/08/10 09:21:40;;;;;;;2.35;1.10;;;;;;;;;;5053981;28;20381;-81
2022/08/10 09:24:13;;;;;;;2.28;1.13;;;;;;;;;;5046564;28;20393;-82
2022/08/10 09:26:46;;;;;;;1.88;1.00;;;;;;;;;;5053778;28;20486;-83
2022/08/10 09:29:14;;;;;;;1.40;1.00;;;;;;;;;;5053880;28;20373;-82
2022/08/10 09:31:45;;;;;;;1.90;1.17;;;;;;;;;;5053932;28;20414;-82
2022/08/10 09:34:11;;;;;;;2.00;1.25;;;;;;;;;;5053326;28;20751;-82
2022/08/10 09:36:37;;;;;;;3.65;1.10;;;;;;;;;;5053695;28;20919;-82
2022/08/10 09:39:12;;;;;;;3.10;1.10;;;;;;;;;;5053698;28;20421;-82
2022/08/10 09:41:45;;;;;;;1.40;1.05;;;;;;;;;;5053792;28;20873;-83
2022/08/10 09:44:11;;;;;;;2.55;1.00;;;;;;;;;;5053723;28;20396;-82
2022/08/10 09:46:46;;;;;;;2.55;1.10;;;;;;;;;;5035782;28;20390;-82
2022/08/10 09:49:19;;;;;;;1.38;1.00;;;;;;;;;;5053624;28;20468;-83
2022/08/10 09:51:48;;;;;;;1.50;1.05;;;;;;;;;;5053635;28;20381;-83
2022/08/10 09:54:26;;;;;;;2.58;1.17;;;;;;;;;;5053659;28;20389;-82
2022/08/10 09:57:12;;;;;;;2.07;0.83;;;;;;;;;;5037899;28;20413;-82
2022/08/10 09:59:54;;;;;;;2.80;1.10;;;;;;;;;;5022368;28;20385;-83
2022/08/10 10:02:20;;;;;;;2.83;1.20;;;;;;;;;;5053692;28;20431;-83
2022/08/10 10:04:58;;;;;;;1.40;1.02;;;;;;;;;;5053267;28;20378;-83
2022/08/10 10:07:26;;;;;;;1.90;1.17;;;;;;;;;;5053177;28;20374;-82
2022/08/10 10:10:07;;;;;;;3.90;1.20;;;;;;;;;;5053480;28;20377;-83
2022/08/10 10:12:52;;;;;;;1.10;0.90;;;;;;;;;;5035519;28;20851;-82
2022/08/10 10:15:34;;;;;;;2.22;0.70;;;;;;;;;;5053351;28;20401;-82
2022/08/10 10:18:19;;;;;;;1.17;0.90;;;;;;;;;;5052984;28;20382;-82
2022/08/10 10:21:00;;;;;;;2.27;1.10;;;;;;;;;;5053135;28;20386;-82
2022/08/10 10:23:45;;;;;;;3.17;1.20;;;;;;;;;;5052786;28;20435;-82
2022/08/10 10:26:11;;;;;;;1.80;1.10;;;;;;;;;;5052966;28;20374;-82
2022/08/10 10:29:00;;;;;;;3.40;1.10;;;;;;;;;;5052601;28;20412;-83
2022/08/10 10:31:45;;;;;;;1.80;1.00;;;;;;;;;;5023294;28;20897;-83
2022/08/10 10:34:20;;;;;;;3.65;1.13;;;;;;;;;;5053445;28;20866;-82
2022/08/10 10:36:46;;;;;;;2.08;0.85;;;;;;;;;;5052708;28;20463;-82
2022/08/10 10:39:13;;;;;;;2.42;1.02;;;;;;;;;;5034960;28;20386;-83
2022/08/10 10:41:50;;;;;;;3.10;0.90;;;;;;;;;;5052643;28;20401;-82
2022/08/10 10:44:25;;;;;;;2.67;0.98;;;;;;;;;;5052809;28;20396;-82
2022/08/10 10:46:57;;;;;;;1.30;1.00;;;;;;;;;;5052445;28;20386;-82
2022/08/10 10:49:46;;;;;;;1.77;0.98;;;;;;;;;;5052380;28;20389;-81
2022/08/10 10:52:33;;;;;;;0.70;0.68;;;;;;;;;;5024380;28;20394;-82
2022/08/10 10:55:05;;;;;;;2.08;0.95;;;;;;;;;;5052316;28;20385;-82
2022/08/10 10:57:40;;;;;;;3.28;0.90;;;;;;;;;;5052352;28;20369;-82
2022/08/10 11:00:07;;;;;;;1.42;0.80;;;;;;;;;;5052227;28;20405;-83
2022/08/10 11:02:40;;;;;;;1.90;0.73;;;;;;;;;;5035178;28;20381;-82
2022/08/10 11:05:09;;;;;;;4.38;0.90;;;;;;;;;;5052278;28;20381;-82
2022/08/10 11:07:41;;;;;;;1.00;0.70;;;;;;;;;;5052228;28;20419;-82
2022/08/10 11:10:09;;;;;;;3.57;0.77;;;;;;;;;;5052248;28;20476;-82
2022/08/10 11:12:49;;;;;;;2.50;0.75;;;;;;;;;;5052300;28;20377;-83
2022/08/10 11:15:19;;;;;;;2.13;0.93;;;;;;;;;;5052131;28;20412;-82
2022/08/10 11:17:50;;;;;;;2.33;0.85;;;;;;;;;;5052105;28;20381;-83
2022/08/10 11:20:25;;;;;;;3.10;0.85;;;;;;;;;;5052033;28;20397;-82
2022/08/10 11:23:12;;;;;;;1.77;0.80;;;;;;;;;;5052204;28;20384;-82
2022/08/10 11:25:40;;;;;;;1.98;0.70;;;;;;;;;;5052147;28;20468;-82
2022/08/10 11:28:06;;;;;;;1.15;0.70;;;;;;;;;;5051815;28;20397;-83
2022/08/10 11:30:35;;;;;;;1.60;0.70;;;;;;;;;;5051994;28;20746;-83
2022/08/10 11:33:07;;;;;;;1.38;0.70;;;;;;;;;;5052207;28;20520;-84
2022/08/10 11:35:38;;;;;;;1.40;0.70;;;;;;;;;;5048812;28;20841;-83
2022/08/10 11:38:22;;;;;;;1.17;0.60;;;;;;;;;;5052025;28;20510;-83
2022/08/10 11:40:54;;;;;;;1.98;0.70;;;;;;;;;;5051916;28;20377;-83
2022/08/10 11:43:28;;;;;;;1.70;0.70;;;;;;;;;;5054228;28;20412;-82
2022/08/10 11:45:58;;;;;;;2.40;0.70;;;;;;;;;;5055924;28;20385;-84
2022/08/10 11:48:34;;;;;;;1.85;0.70;;;;;;;;;;5055850;28;20389;-83
2022/08/10 11:51:06;;;;;;;1.88;0.80;;;;;;;;;;5055858;28;20738;-83
2022/08/10 11:53:48;;;;;;;1.83;0.90;;;;;;;;;;5055554;28;20385;-83
2022/08/10 11:56:19;;;;;;;2.63;0.90;;;;;;;;;;5055655;28;20408;-82
2022/08/10 12:01:31;;;;;;;3.22;0.80;;;;;;;;;;5055626;28;20404;-82
2022/08/10 12:04:01;;;;;;;3.78;0.95;;;;;;;;;;5055329;28;20882;-83
2022/08/10 12:06:28;;;;;;;2.83;0.80;;;;;;;;;;5055853;28;20378;-82
2022/08/10 12:08:55;;;;;;;1.98;0.70;;;;;;;;;;5055560;28;20403;-82
2022/08/10 12:11:22;;;;;;;1.83;0.77;;;;;;;;;;5055493;28;20415;-83
2022/08/10 12:13:48;;;;;;;2.08;0.80;;;;;;;;;;5055434;28;20858;-83
2022/08/10 12:16:21;;;;;;;2.83;0.75;;;;;;;;;;5055322;28;20459;-83
2022/08/10 12:19:06;;;;;;;1.27;0.90;;;;;;;;;;5055337;28;20373;-82
2022/08/10 12:21:47;;;;;;;2.85;0.80;;;;;;;;;;5055227;28;20377;-82
2022/08/10 12:24:32;;;;;;;1.95;0.70;;;;;;;;;;5055250;28;20385;-83
2022/08/10 12:27:08;;;;;;;1.40;0.70;;;;;;;;;;5055050;28;20419;-83
2022/08/10 12:29:49;;;;;;;0.90;0.55;;;;;;;;;;5055017;28;20386;-82
2022/08/10 12:32:16;;;;;;;1.77;0.70;;;;;;;;;;5037257;28;20775;-83
2022/08/10 12:35:03;;;;;;;1.00;0.60;;;;;;;;;;5055367;28;20445;-82
2022/08/10 12:37:32;;;;;;;2.15;0.73;;;;;;;;;;5054973;28;20413;-82
2022/08/10 12:40:15;;;;;;;1.70;0.70;;;;;;;;;;5055048;28;20520;-83
2022/08/10 12:42:47;;;;;;;1.23;0.52;;;;;;;;;;5054821;28;20413;-81
2022/08/10 12:45:16;;;;;;;2.30;0.50;;;;;;;;;;5054886;28;20388;-83
2022/08/10 12:48:04;;;;;;;1.80;0.60;;;;;;;;;;5054807;28;20466;-82
2022/08/10 12:50:42;;;;;;;2.47;0.60;;;;;;;;;;5054699;28;20383;-82
2022/08/10 12:53:27;;;;;;;1.00;0.60;;;;;;;;;;5054608;28;20373;-82
2022/08/10 12:55:53;;;;;;;1.60;0.60;;;;;;;;;;5053886;28;20405;-82
2022/08/10 12:58:20;;;;;;;2.40;0.60;;;;;;;;;;5054530;28;20468;-82
2022/08/10 13:00:48;;;;;;;1.77;0.60;;;;;;;;;;5036632;28;20374;-83
2022/08/10 13:03:14;;;;;;;1.25;0.60;;;;;;;;;;5054603;28;20420;-83
2022/08/10 13:05:41;;;;;;;1.88;0.60;;;;;;;;;;5054528;28;20388;-82
2022/08/10 13:10:54;;;;;;;1.10;0.68;;;;;;;;;;5054648;28;20464;-83
2022/08/10 13:13:23;;;;;;;1.25;0.60;;;;;;;;;;5036673;28;20951;-82
2022/08/10 13:15:49;;;;;;;2.90;0.70;;;;;;;;;;5054352;28;20451;-82
2022/08/10 13:18:17;;;;;;;1.80;0.73;;;;;;;;;;5053994;28;20458;-82
2022/08/10 13:20:44;;;;;;;1.58;0.65;;;;;;;;;;5054393;28;20377;-82
2022/08/10 13:23:21;;;;;;;1.90;0.60;;;;;;;;;;5054221;28;20377;-83
2022/08/10 13:25:49;;;;;;;1.85;0.75;;;;;;;;;;5054324;28;20381;-82
2022/08/10 13:28:17;;;;;;;1.55;0.70;;;;;;;;;;5053792;28;20398;-82
2022/08/10 13:30:45;;;;;;;4.07;0.75;;;;;;;;;;5053936;28;20389;-81
2022/08/10 13:33:13;;;;;;;2.28;0.70;;;;;;;;;;5054521;28;20382;-83
2022/08/10 13:35:40;;;;;;;1.52;0.80;;;;;;;;;;5051102;28;20901;-83
2022/08/10 13:38:08;;;;;;;1.00;0.65;;;;;;;;;;5053347;28;20378;-82
2022/08/10 13:40:35;;;;;;;3.10;0.80;;;;;;;;;;5052236;28;20416;-81
2022/08/10 13:43:04;;;;;;;1.37;0.70;;;;;;;;;;5051723;28;20389;-81
2022/08/10 13:45:31;;;;;;;1.57;0.70;;;;;;;;;;5035342;28;20393;-82
2022/08/10 13:48:09;;;;;;;1.85;0.73;;;;;;;;;;5052279;28;20461;-82
2022/08/10 13:50:38;;;;;;;2.30;0.60;;;;;;;;;;5049046;28;20381;-82
2022/08/10 13:53:06;;;;;;;2.92;0.70;;;;;;;;;;5051886;28;20473;-82
2022/08/10 13:55:32;;;;;;;2.25;0.80;;;;;;;;;;5052351;28;20401;-81
2022/08/10 13:58:00;;;;;;;3.88;0.80;;;;;;;;;;5053208;28;20420;-82
2022/08/10 14:00:31;;;;;;;1.77;0.70;;;;;;;;;;5053380;28;20373;-81
2022/08/10 14:03:10;;;;;;;2.55;0.65;;;;;;;;;;5053337;28;20457;-83
2022/08/10 14:05:37;;;;;;;0.65;0.60;;;;;;;;;;5053280;28;20413;-81
2022/08/10 14:08:04;;;;;;;0.73;0.60;;;;;;;;;;5053201;28;20913;-81
2022/08/10 14:10:36;;;;;;;2.57;0.70;;;;;;;;;;5053564;28;20397;-82
2022/08/10 14:13:03;;;;;;;3.33;0.60;;;;;;;;;;5053185;28;20735;-81
2022/08/10 14:15:29;;;;;;;2.65;0.60;;;;;;;;;;5052965;28;20405;-83
2022/08/10 14:17:57;;;;;;;2.63;0.70;;;;;;;;;;5053067;28;20461;-81
2022/08/10 14:20:26;;;;;;;1.85;1.00;;;;;;;;;;5053048;28;20393;-81
2022/08/10 14:22:59;;;;;;;2.45;0.65;;;;;;;;;;5053058;28;20427;-81
2022/08/10 14:25:25;;;;;;;2.38;0.60;;;;;;;;;;5052917;28;20870;-82
2022/08/10 14:27:51;;;;;;;3.05;0.73;;;;;;;;;;5052327;28;20389;-81
2022/08/10 14:30:17;;;;;;;0.90;0.40;;;;;;;;;;5052792;28;20898;-82
2022/08/10 14:32:44;;;;;;;2.53;0.60;;;;;;;;;;5053112;28;20389;-81
2022/08/10 14:35:11;;;;;;;1.95;0.50;;;;;;;;;;5052699;28;20393;-81
2022/08/10 14:37:39;;;;;;;1.27;0.57;;;;;;;;;;5052334;28;20448;-82
2022/08/10 14:40:14;;;;;;;2.40;0.60;;;;;;;;;;5052780;28;20388;-83
2022/08/10 14:42:49;;;;;;;1.63;0.60;;;;;;;;;;5052580;28;20430;-82
2022/08/10 14:45:20;;;;;;;1.58;0.70;;;;;;;;;;5052829;28;20468;-82
2022/08/10 14:47:48;;;;;;;1.25;0.60;;;;;;;;;;5052496;28;20420;-83
2022/08/10 14:50:16;;;;;;;1.92;0.70;;;;;;;;;;5052507;28;20378;-81
2022/08/10 14:52:42;;;;;;;0.80;0.55;;;;;;;;;;5052395;28;20384;-81
2022/08/10 14:55:09;;;;;;;1.67;0.80;;;;;;;;;;5052478;28;20388;-81
2022/08/10 14:57:42;;;;;;;1.73;0.73;;;;;;;;;;5034741;28;20413;-82
2022/08/10 15:00:09;;;;;;;2.40;0.60;;;;;;;;;;5048621;28;20467;-81
2022/08/10 15:02:42;;;;;;;2.80;0.60;;;;;;;;;;5049926;28;20535;-81
2022/08/10 15:05:08;;;;;;;3.00;0.68;;;;;;;;;;5047170;28;20496;-81
2022/08/10 15:07:35;;;;;;;2.00;0.70;;;;;;;;;;5051797;28;20930;-82
2022/08/10 15:10:01;;;;;;;2.53;0.50;;;;;;;;;;5051634;28;20400;-81